Bonaire, Georgia
Current Conditions -  °F | °C
As of 3:58 PM on Saturday 22 Nov 2014 (Local Time) from KWRB Reporting Station
Overcast Overcast  
Wind Chill: 18°   Ceiling: 8000
Heat Index: 18°   Visibility: 10mi
Dew Point:   Wind: 9mph
Humidity: 39%   Direction: 100°E
Pressure: 30.28"   Gusts: NA
Location:  32.54°N, 83.6°W
Report Text: KWRB 222058Z AUTO 10008KT 10SM FEW041 OVC080 18/04 A3028 RMK AO2 SLP257 T01790036 57027
Loading
Personal Weather Stations






























Interactive Weather Map New forecast layout! Learn more

10-Day Weather Forecast

Advertisements
Track Severe Weather on mobile